createdAt,value
2018-03-27T00:02:05.133Z,67.67
2018-03-27T00:04:32.609Z,62.77
2018-03-27T00:07:00.341Z,71.73
2018-03-27T00:09:27.805Z,62.97
2018-03-27T00:11:55.278Z,68.97
2018-03-27T00:14:23.499Z,68.00
2018-03-27T00:16:51.732Z,64.43
2018-03-27T00:19:19.187Z,64.13
2018-03-27T00:21:47.423Z,62.97
2018-03-27T00:24:14.884Z,64.00
2018-03-27T00:26:54.293Z,60.53
2018-03-27T00:29:34.485Z,63.77
2018-03-27T00:32:14.021Z,64.77
2018-03-27T00:34:53.672Z,61.53
2018-03-27T00:37:32.979Z,60.33
2018-03-27T00:40:13.050Z,65.30
2018-03-27T00:42:59.338Z,63.53
2018-03-27T00:45:26.846Z,66.33
2018-03-27T00:47:54.305Z,64.83
2018-03-27T00:50:21.774Z,67.37
2018-03-27T00:52:49.231Z,63.97
2018-03-27T00:55:16.695Z,68.93
2018-03-27T00:57:44.407Z,62.40
2018-03-27T01:00:12.279Z,68.43
2018-03-27T01:02:39.752Z,65.63
2018-03-27T01:05:10.169Z,62.10
2018-03-27T01:07:37.639Z,65.07
2018-03-27T01:10:05.095Z,63.87
2018-03-27T01:12:32.562Z,61.53
2018-03-27T01:15:00.024Z,63.23
2018-03-27T01:17:27.485Z,58.70
2018-03-27T01:19:54.972Z,63.97
2018-03-27T01:22:23.187Z,61.80
2018-03-27T01:24:50.650Z,58.53
2018-03-27T01:27:18.147Z,59.17
2018-03-27T01:29:45.857Z,59.63
2018-03-27T01:32:13.328Z,59.93
2018-03-27T01:34:40.777Z,63.17
2018-03-27T01:37:08.353Z,59.63
2018-03-27T01:39:35.837Z,59.10
2018-03-27T01:42:03.314Z,58.30
2018-03-27T01:44:31.547Z,57.23
2018-03-27T01:46:58.998Z,62.60
2018-03-27T01:49:26.466Z,60.40
2018-03-27T01:51:53.938Z,63.80
2018-03-27T01:54:21.393Z,66.40
2018-03-27T01:56:48.859Z,62.97
2018-03-27T01:59:16.319Z,61.23
2018-03-27T02:01:43.797Z,59.33
2018-03-27T02:04:12.018Z,63.33
2018-03-27T02:06:39.761Z,62.40
2018-03-27T02:09:07.528Z,61.70
2018-03-27T02:11:40.715Z,60.87
2018-03-27T02:14:13.782Z,62.00
2018-03-27T02:16:47.741Z,60.73
2018-03-27T02:19:20.938Z,63.87
2018-03-27T02:21:47.914Z,61.63
2018-03-27T02:24:16.946Z,63.83
2018-03-27T02:26:44.406Z,59.33
2018-03-27T02:29:11.874Z,62.97
2018-03-27T02:31:40.108Z,65.83
2018-03-27T02:34:07.582Z,67.70
2018-03-27T02:36:35.044Z,68.17
2018-03-27T02:39:02.509Z,61.10
2018-03-27T02:41:29.981Z,66.50
2018-03-27T02:43:57.443Z,67.60
2018-03-27T02:46:24.907Z,70.03
2018-03-27T02:48:52.374Z,68.70
2018-03-27T02:51:19.838Z,66.97
2018-03-27T02:53:47.302Z,62.23
2018-03-27T02:56:14.765Z,65.83
2018-03-27T02:58:42.235Z,72.37
2018-03-27T03:01:10.463Z,70.97
2018-03-27T03:03:37.925Z,69.53
2018-03-27T03:06:05.393Z,72.53
2018-03-27T03:08:32.845Z,76.63
2018-03-27T03:11:01.079Z,70.50
2018-03-27T03:13:28.762Z,76.57
2018-03-27T03:15:56.224Z,70.23
2018-03-27T03:18:23.694Z,77.87
2018-03-27T03:20:51.530Z,71.57
2018-03-27T03:23:19.400Z,80.10
2018-03-27T03:25:46.867Z,81.33
2018-03-27T03:28:14.350Z,76.27
2018-03-27T03:30:41.823Z,79.63
2018-03-27T03:33:09.287Z,81.73
2018-03-27T03:35:37.527Z,79.97
2018-03-27T03:38:04.996Z,82.60
2018-03-27T03:40:32.445Z,88.07
2018-03-27T03:42:59.915Z,76.90
2018-03-27T03:45:27.372Z,79.10
2018-03-27T03:47:55.156Z,77.63
2018-03-27T03:50:22.579Z,80.43
2018-03-27T03:52:50.038Z,82.20
2018-03-27T03:55:18.270Z,83.00
2018-03-27T03:57:45.743Z,84.37
2018-03-27T04:00:13.209Z,76.13
2018-03-27T04:02:40.966Z,80.80
2018-03-27T04:05:08.426Z,78.63
2018-03-27T04:07:35.889Z,80.70
2018-03-27T04:10:03.361Z,90.53
2018-03-27T04:12:30.834Z,82.07
2018-03-27T04:14:58.299Z,79.87
2018-03-27T04:17:25.766Z,82.67
2018-03-27T04:19:53.477Z,84.43
2018-03-27T04:22:20.955Z,80.40
2018-03-27T04:24:48.423Z,81.30
2018-03-27T04:27:16.150Z,78.77
2018-03-27T04:29:43.620Z,81.20
2018-03-27T04:32:11.093Z,81.20
2018-03-27T04:34:38.546Z,82.13
2018-03-27T04:37:06.019Z,87.03
2018-03-27T04:39:33.484Z,86.93
2018-03-27T04:42:01.201Z,82.43
2018-03-27T04:44:28.685Z,86.47
2018-03-27T04:46:56.138Z,95.43
2018-03-27T04:49:23.601Z,87.53
2018-03-27T04:51:51.061Z,89.17
2018-03-27T04:54:18.589Z,101.67
2018-03-27T04:56:46.013Z,88.27
2018-03-27T04:59:14.230Z,89.20
2018-03-27T05:01:41.712Z,94.93
2018-03-27T05:04:09.174Z,92.77
2018-03-27T05:06:36.645Z,92.93
2018-03-27T05:09:04.358Z,91.03
2018-03-27T05:11:31.814Z,91.53
2018-03-27T05:13:59.286Z,100.37
2018-03-27T05:16:26.742Z,107.87
2018-03-27T05:18:54.209Z,108.57
2018-03-27T05:21:21.673Z,97.17
2018-03-27T05:23:49.131Z,104.50
2018-03-27T05:26:16.597Z,93.47
2018-03-27T05:28:44.052Z,95.20
2018-03-27T05:31:11.534Z,102.83
2018-03-27T05:33:39.759Z,106.40
2018-03-27T05:36:07.230Z,96.53
2018-03-27T05:38:34.967Z,92.80
2018-03-27T05:41:02.434Z,103.57
2018-03-27T05:43:29.900Z,90.30
2018-03-27T05:45:57.363Z,93.97
2018-03-27T05:48:24.862Z,96.23
2018-03-27T05:50:53.106Z,90.90
2018-03-27T05:53:20.562Z,98.60
2018-03-27T05:55:48.048Z,99.70
2018-03-27T05:58:15.491Z,100.67
2018-03-27T06:00:42.963Z,101.57
2018-03-27T06:03:11.486Z,111.97
2018-03-27T06:05:38.950Z,99.17
2018-03-27T06:08:06.431Z,105.60
2018-03-27T06:10:34.168Z,99.87
2018-03-27T06:13:01.935Z,94.00
2018-03-27T06:15:29.399Z,96.90
2018-03-27T06:17:57.552Z,103.10
2018-03-27T06:20:25.023Z,100.63
2018-03-27T06:22:52.482Z,102.70
2018-03-27T06:25:19.963Z,93.70
2018-03-27T06:27:47.441Z,104.17
2018-03-27T06:30:14.905Z,102.33
2018-03-27T06:32:42.378Z,104.50
2018-03-27T06:35:10.602Z,107.47
2018-03-27T06:37:38.077Z,110.10
2018-03-27T06:40:05.543Z,114.10
2018-03-27T06:42:33.022Z,108.13
2018-03-27T06:45:00.487Z,106.53
2018-03-27T06:47:27.960Z,114.90
2018-03-27T06:49:55.436Z,104.67
2018-03-27T06:52:22.908Z,109.97
2018-03-27T06:54:50.382Z,110.23
2018-03-27T06:57:17.892Z,120.60
2018-03-27T06:59:45.356Z,114.83
2018-03-27T07:02:12.840Z,127.90
2018-03-27T07:04:40.290Z,113.50
2018-03-27T07:07:07.767Z,104.20
2018-03-27T07:09:35.260Z,111.17
2018-03-27T07:12:03.576Z,110.90
2018-03-27T07:14:31.068Z,107.90
2018-03-27T07:16:58.534Z,105.20
2018-03-27T07:19:26.010Z,116.60
2018-03-27T07:21:54.245Z,125.50
2018-03-27T07:24:21.705Z,112.33
2018-03-27T07:26:49.535Z,124.33
2018-03-27T07:29:17.002Z,109.53
2018-03-27T07:31:44.470Z,115.63
2018-03-27T07:34:11.938Z,126.57
2018-03-27T07:36:39.669Z,114.67
2018-03-27T07:39:07.909Z,116.67
2018-03-27T07:41:36.137Z,124.10
2018-03-27T07:44:03.635Z,114.60
2018-03-27T07:46:31.101Z,127.93
2018-03-27T07:48:59.335Z,119.07
2018-03-27T07:51:26.803Z,112.13
2018-03-27T07:53:54.268Z,107.97
2018-03-27T07:56:21.738Z,110.13
2018-03-27T07:58:49.988Z,108.07
2018-03-27T08:01:18.619Z,107.17
2018-03-27T08:03:50.302Z,104.53
2018-03-27T08:06:17.766Z,98.90
2018-03-27T08:08:45.242Z,97.40
2018-03-27T08:11:13.502Z,94.83
2018-03-27T08:13:41.002Z,103.90
2018-03-27T08:16:09.530Z,101.53
2018-03-27T08:18:37.026Z,90.27
2018-03-27T08:21:04.490Z,97.90
2018-03-27T08:23:32.718Z,88.17
2018-03-27T08:26:00.190Z,91.47
2018-03-27T08:28:27.657Z,85.13
2018-03-27T08:30:55.127Z,87.60
2018-03-27T08:33:22.607Z,79.53
2018-03-27T08:35:50.847Z,83.13
2018-03-27T08:38:18.325Z,82.73
2018-03-27T08:40:45.794Z,82.40
2018-03-27T08:43:13.251Z,75.63
2018-03-27T08:45:40.723Z,79.73
2018-03-27T08:48:08.956Z,75.20
2018-03-27T08:50:36.423Z,72.67
2018-03-27T08:53:03.890Z,71.93
2018-03-27T08:55:31.359Z,72.60
2018-03-27T08:57:58.830Z,72.07
2018-03-27T09:00:27.067Z,66.90
2018-03-27T09:02:54.555Z,66.67
2018-03-27T09:05:22.838Z,66.27
2018-03-27T09:07:50.252Z,66.23
2018-03-27T09:10:17.724Z,68.33
2018-03-27T09:12:45.178Z,61.23
2018-03-27T09:15:12.658Z,64.47
2018-03-27T09:17:40.116Z,60.43
2018-03-27T09:20:08.350Z,60.30
2018-03-27T09:22:35.811Z,61.07
2018-03-27T09:25:03.280Z,56.97
2018-03-27T09:27:30.736Z,55.93
2018-03-27T09:29:58.208Z,54.93
2018-03-27T09:32:25.687Z,55.53
2018-03-27T09:34:53.930Z,52.27
2018-03-27T09:37:21.386Z,55.67
2018-03-27T09:39:48.861Z,53.17
2018-03-27T09:42:16.327Z,56.03
2018-03-27T09:44:44.552Z,50.30
2018-03-27T09:47:12.236Z,54.77
2018-03-27T09:49:40.540Z,55.83
2018-03-27T09:52:13.459Z,54.83
2018-03-27T09:54:40.933Z,47.80
2018-03-27T09:57:12.958Z,50.43
2018-03-27T09:59:41.186Z,50.87
2018-03-27T10:02:09.751Z,50.57
2018-03-27T10:04:37.512Z,52.90
2018-03-27T10:07:04.981Z,50.07
2018-03-27T10:09:32.735Z,50.87
2018-03-27T10:12:00.216Z,48.50
2018-03-27T10:14:27.894Z,49.00
2018-03-27T10:16:55.362Z,50.33
2018-03-27T10:19:22.830Z,47.23
2018-03-27T10:24:31.087Z,34.07
2018-03-27T10:26:58.564Z,33.00
2018-03-27T10:29:26.311Z,35.50
2018-03-27T10:31:54.079Z,36.77
2018-03-27T10:34:21.543Z,38.77
2018-03-27T10:36:49.018Z,40.27
2018-03-27T10:39:16.754Z,38.83
2018-03-27T10:41:44.238Z,41.03
2018-03-27T10:44:11.694Z,36.57
2018-03-27T10:46:39.178Z,37.10
2018-03-27T10:49:06.642Z,41.10
2018-03-27T10:51:34.098Z,24.23
2018-03-27T10:54:01.579Z,34.53
2018-03-27T10:56:29.037Z,34.33
2018-03-27T10:58:56.520Z,32.30
2018-03-27T11:01:24.278Z,33.23
2018-03-27T11:03:51.814Z,30.40
2018-03-27T11:06:19.258Z,29.80
2018-03-27T11:08:47.502Z,28.40
2018-03-27T11:11:14.974Z,30.87
2018-03-27T11:13:42.445Z,31.13
2018-03-27T11:16:10.274Z,30.30
2018-03-27T11:18:37.715Z,34.20
2018-03-27T11:21:05.187Z,31.60
2018-03-27T11:23:36.925Z,29.00
2018-03-27T11:26:04.388Z,25.70
2018-03-27T11:28:31.871Z,26.93
2018-03-27T11:30:59.348Z,26.57
2018-03-27T11:33:27.600Z,26.97
2018-03-27T11:35:55.338Z,23.03
2018-03-27T11:38:22.815Z,22.87
2018-03-27T11:40:50.277Z,25.50
2018-03-27T11:43:17.742Z,24.90
2018-03-27T11:45:45.217Z,26.30
2018-03-27T11:48:13.458Z,25.90
2018-03-27T11:50:40.917Z,25.13
2018-03-27T11:53:08.387Z,26.37
2018-03-27T11:55:35.873Z,27.80
2018-03-27T11:58:04.117Z,26.00
2018-03-27T12:00:31.587Z,25.70
2018-03-27T12:02:59.051Z,26.33
2018-03-27T12:05:26.765Z,27.63
2018-03-27T12:07:54.531Z,24.43
2018-03-27T12:10:22.000Z,27.70
2018-03-27T12:12:49.750Z,46.47
2018-03-27T12:15:17.288Z,28.67
2018-03-27T12:17:45.514Z,26.43
2018-03-27T12:20:12.973Z,25.50
2018-03-27T12:22:40.449Z,25.80
2018-03-27T12:25:07.910Z,35.10
2018-03-27T12:27:35.624Z,22.53
2018-03-27T12:30:03.386Z,32.93
2018-03-27T12:32:30.854Z,39.77
2018-03-27T12:34:58.607Z,27.43
2018-03-27T12:37:26.066Z,29.63
2018-03-27T12:39:53.549Z,32.47
2018-03-27T12:42:21.024Z,23.00
2018-03-27T12:44:48.489Z,19.60
2018-03-27T12:47:15.972Z,20.93
2018-03-27T12:49:43.451Z,45.07
2018-03-27T12:52:10.954Z,23.00
2018-03-27T12:54:38.392Z,20.53
2018-03-27T12:57:05.857Z,20.80
2018-03-27T12:59:33.346Z,18.37
2018-03-27T13:02:01.591Z,22.73
2018-03-27T13:04:29.077Z,21.87
2018-03-27T13:06:56.575Z,25.60
2018-03-27T13:09:24.033Z,20.00
2018-03-27T13:11:51.552Z,20.30
2018-03-27T13:14:19.258Z,23.57
2018-03-27T13:16:46.748Z,20.83
2018-03-27T13:19:14.227Z,21.40
2018-03-27T13:21:42.466Z,26.40
2018-03-27T13:24:09.942Z,21.97
2018-03-27T13:26:37.406Z,20.83
2018-03-27T13:29:04.918Z,21.90
2018-03-27T13:31:32.374Z,20.03
2018-03-27T13:33:59.856Z,21.33
2018-03-27T13:36:27.595Z,22.23
2018-03-27T13:38:55.405Z,22.93
2018-03-27T13:41:23.123Z,22.27
2018-03-27T13:43:50.580Z,22.50
2018-03-27T13:46:18.062Z,21.00
2018-03-27T13:48:45.525Z,21.23
2018-03-27T13:51:12.998Z,21.40
2018-03-27T13:53:40.463Z,22.47
2018-03-27T13:56:07.936Z,23.60
2018-03-27T13:58:36.158Z,21.60
2018-03-27T14:01:03.638Z,20.10
2018-03-27T14:03:31.097Z,20.80
2018-03-27T14:05:58.583Z,24.10
2018-03-27T14:08:26.826Z,21.87
2018-03-27T14:10:54.560Z,22.77
2018-03-27T14:13:22.035Z,22.00
2018-03-27T14:15:49.505Z,21.10
2018-03-27T14:18:16.978Z,25.57
2018-03-27T14:20:46.333Z,23.57
2018-03-27T14:23:13.801Z,21.57
2018-03-27T14:25:41.330Z,22.93
2018-03-27T14:28:08.930Z,28.10
2018-03-27T14:30:36.505Z,23.80
2018-03-27T14:33:07.510Z,21.90
2018-03-27T14:35:34.983Z,20.80
2018-03-27T14:38:03.138Z,30.90
2018-03-27T14:40:30.605Z,21.90
2018-03-27T14:42:58.074Z,25.23
2018-03-27T14:45:25.549Z,24.17
2018-03-27T14:47:53.270Z,20.90
2018-03-27T14:50:20.735Z,22.07
2018-03-27T14:52:49.155Z,22.83
2018-03-27T14:55:17.857Z,21.87
2018-03-27T14:57:45.510Z,20.13
2018-03-27T15:00:12.991Z,22.80
2018-03-27T15:02:40.498Z,24.10
2018-03-27T15:05:08.233Z,21.47
2018-03-27T15:07:35.695Z,21.10
2018-03-27T15:10:03.168Z,21.40
2018-03-27T15:12:31.398Z,21.50
2018-03-27T15:14:59.641Z,23.00
2018-03-27T15:17:27.116Z,22.33
2018-03-27T15:19:55.346Z,23.53
2018-03-27T15:22:22.948Z,22.03
2018-03-27T15:24:50.407Z,22.73
2018-03-27T15:27:17.895Z,20.93
2018-03-27T15:29:45.377Z,20.87
2018-03-27T15:32:12.880Z,21.20
2018-03-27T15:34:40.358Z,24.73
2018-03-27T15:37:08.586Z,20.23
2018-03-27T15:39:36.281Z,23.17
2018-03-27T15:42:05.091Z,22.40
2018-03-27T15:44:32.587Z,22.33
2018-03-27T15:47:00.075Z,20.13
2018-03-27T15:49:27.539Z,20.30
2018-03-27T15:51:55.012Z,22.00
2018-03-27T15:54:23.247Z,22.13
2018-03-27T15:56:50.731Z,19.17
2018-03-27T15:59:18.954Z,18.73
2018-03-27T16:01:46.430Z,18.97
2018-03-27T16:04:13.902Z,20.17
2018-03-27T16:06:41.362Z,21.03
2018-03-27T16:09:08.838Z,21.80
2018-03-27T16:11:37.071Z,19.77
2018-03-27T16:14:04.542Z,20.53
2018-03-27T16:16:32.012Z,21.73
2018-03-27T16:18:59.486Z,21.33
2018-03-27T16:21:27.736Z,22.33
2018-03-27T16:23:55.210Z,21.73
2018-03-27T16:26:22.698Z,22.97
2018-03-27T16:28:50.183Z,23.37
2018-03-27T16:31:17.941Z,24.83
2018-03-27T16:33:45.710Z,20.40
2018-03-27T16:36:13.177Z,21.37
2018-03-27T16:38:40.675Z,26.67
2018-03-27T16:41:08.905Z,23.10
2018-03-27T16:43:36.423Z,21.90
2018-03-27T16:46:03.854Z,26.40
2018-03-27T16:48:31.311Z,24.60
2018-03-27T16:51:00.506Z,22.90
2018-03-27T16:53:27.995Z,21.73
2018-03-27T16:55:56.234Z,21.97
2018-03-27T16:58:27.258Z,21.43
2018-03-27T17:00:55.502Z,22.83
2018-03-27T17:03:22.954Z,24.30
2018-03-27T17:05:50.466Z,27.70
2018-03-27T17:08:17.943Z,23.90
2018-03-27T17:10:45.407Z,24.57
2018-03-27T17:13:13.650Z,25.97
2018-03-27T17:15:41.148Z,24.07
2018-03-27T17:18:08.631Z,23.33
2018-03-27T17:20:36.083Z,23.53
2018-03-27T17:23:03.558Z,25.00
2018-03-27T17:25:31.311Z,25.50
2018-03-27T17:27:58.777Z,25.10
2018-03-27T17:30:26.254Z,25.93
2018-03-27T17:32:54.592Z,23.80
2018-03-27T17:35:22.076Z,27.27
2018-03-27T17:37:49.754Z,25.10
2018-03-27T17:40:17.592Z,27.37
2018-03-27T17:42:45.059Z,25.37
2018-03-27T17:45:12.523Z,27.10
2018-03-27T17:47:44.346Z,24.53
2018-03-27T17:50:11.845Z,28.40
2018-03-27T17:52:39.314Z,25.97
2018-03-27T17:55:07.764Z,25.60
2018-03-27T17:57:35.233Z,26.07
2018-03-27T18:00:02.699Z,23.30
2018-03-27T18:02:30.166Z,25.63
2018-03-27T18:04:57.638Z,27.20
2018-03-27T18:07:25.108Z,26.10
2018-03-27T18:09:53.348Z,25.87
2018-03-27T18:12:20.844Z,27.57
2018-03-27T18:14:49.129Z,27.00
2018-03-27T18:17:16.554Z,26.50
2018-03-27T18:19:44.040Z,25.10
2018-03-27T18:22:12.266Z,28.33
2018-03-27T18:24:39.738Z,27.97
2018-03-27T18:27:07.202Z,26.93
2018-03-27T18:29:38.115Z,26.03
2018-03-27T18:32:06.531Z,28.13
2018-03-27T18:34:34.774Z,27.60
2018-03-27T18:37:02.250Z,28.93
2018-03-27T18:39:29.740Z,27.57
2018-03-27T18:41:57.223Z,27.20
2018-03-27T18:44:24.696Z,28.57
2018-03-27T18:46:52.230Z,26.33
2018-03-27T18:49:19.709Z,27.93
2018-03-27T18:51:47.247Z,25.33
2018-03-27T18:54:17.718Z,26.77
2018-03-27T18:56:45.451Z,26.20
2018-03-27T18:59:25.457Z,27.17
2018-03-27T19:01:52.920Z,28.57
2018-03-27T19:04:21.219Z,28.23
2018-03-27T19:06:48.932Z,27.33
2018-03-27T19:09:16.403Z,29.63
2018-03-27T19:11:43.883Z,30.27
2018-03-27T19:14:12.657Z,29.63
2018-03-27T19:16:40.250Z,27.90
2018-03-27T19:19:09.425Z,30.77
2018-03-27T19:21:37.662Z,28.60
2018-03-27T19:24:05.400Z,28.00
2018-03-27T19:26:33.020Z,28.20
2018-03-27T19:29:01.242Z,30.07
2018-03-27T19:31:28.821Z,28.93
2018-03-27T19:33:56.386Z,30.17
2018-03-27T19:36:23.913Z,28.73
2018-03-27T19:38:51.407Z,29.60
2018-03-27T19:41:18.879Z,30.73
2018-03-27T19:43:46.833Z,31.03
2018-03-27T19:46:14.361Z,28.60
2018-03-27T19:48:42.978Z,27.00
2018-03-27T19:51:10.654Z,30.30
2018-03-27T19:53:43.521Z,29.77
2018-03-27T19:56:10.983Z,26.60
2018-03-27T19:58:38.447Z,28.90
2018-03-27T20:03:52.934Z,27.43
2018-03-27T20:06:21.173Z,28.43
2018-03-27T20:08:48.634Z,28.60
2018-03-27T20:11:16.148Z,27.63
2018-03-27T20:13:43.558Z,26.77
2018-03-27T20:16:11.287Z,26.67
2018-03-27T20:18:38.742Z,30.67
2018-03-27T20:21:06.207Z,28.53
2018-03-27T20:23:33.676Z,30.40
2018-03-27T20:26:01.422Z,29.47
2018-03-27T20:28:28.890Z,29.90
2018-03-27T20:30:56.382Z,28.83
2018-03-27T20:33:23.859Z,28.97
2018-03-27T20:35:52.087Z,28.43
2018-03-27T20:38:19.833Z,29.70
2018-03-27T20:40:47.307Z,30.87
2018-03-27T20:43:14.774Z,29.93
2018-03-27T20:45:42.724Z,26.60
2018-03-27T20:48:10.200Z,30.20
2018-03-27T20:50:37.650Z,28.33
2018-03-27T20:53:05.124Z,26.90
2018-03-27T20:55:32.617Z,26.53
2018-03-27T20:58:00.496Z,26.10
2018-03-27T21:00:27.966Z,23.43
2018-03-27T21:02:55.736Z,27.07
2018-03-27T21:05:24.735Z,24.53
2018-03-27T21:07:52.195Z,24.67
2018-03-27T21:10:19.670Z,25.13
2018-03-27T21:12:47.521Z,25.30
2018-03-27T21:15:14.975Z,25.03
2018-03-27T21:17:42.734Z,25.33
2018-03-27T21:20:10.190Z,25.40
2018-03-27T21:22:37.666Z,26.73
2018-03-27T21:25:05.157Z,24.43
2018-03-27T21:27:32.892Z,25.07
2018-03-27T21:30:00.346Z,23.43
2018-03-27T21:32:28.091Z,25.87
2018-03-27T21:34:55.559Z,24.50
2018-03-27T21:37:23.019Z,26.33
2018-03-27T21:39:52.633Z,22.07
2018-03-27T21:42:20.375Z,24.30
2018-03-27T21:44:47.837Z,23.60
2018-03-27T21:47:15.303Z,23.97
2018-03-27T21:49:42.766Z,23.03
2018-03-27T21:52:10.281Z,22.90
2018-03-27T21:54:37.711Z,21.77
2018-03-27T21:57:05.179Z,21.47
2018-03-27T21:59:33.410Z,19.03
2018-03-27T22:02:00.874Z,19.77
2018-03-27T22:04:28.334Z,20.37
2018-03-27T22:06:55.806Z,16.13
2018-03-27T22:09:23.267Z,17.40
2018-03-27T22:11:50.742Z,20.23
2018-03-27T22:14:18.967Z,16.70
2018-03-27T22:16:46.470Z,16.07
2018-03-27T22:19:13.922Z,16.53
2018-03-27T22:21:41.393Z,16.87
2018-03-27T22:24:09.630Z,15.73
2018-03-27T22:26:37.429Z,19.80
2018-03-27T22:29:05.670Z,19.27
2018-03-27T22:31:33.399Z,16.57
2018-03-27T22:34:00.873Z,17.93
2018-03-27T22:36:28.329Z,16.90
2018-03-27T22:38:55.802Z,17.50
2018-03-27T22:41:23.267Z,16.67
2018-03-27T22:43:51.004Z,16.47
2018-03-27T22:46:18.474Z,16.30
2018-03-27T22:48:45.933Z,17.97
2018-03-27T22:51:13.396Z,19.37
2018-03-27T22:53:40.855Z,19.80
2018-03-27T22:56:08.342Z,16.67
2018-03-27T22:58:35.802Z,17.80
2018-03-27T23:01:04.034Z,16.23
2018-03-27T23:03:31.493Z,17.60
2018-03-27T23:05:58.953Z,18.37
2018-03-27T23:08:26.432Z,16.10
2018-03-27T23:10:53.896Z,18.83
2018-03-27T23:13:21.371Z,15.63
2018-03-27T23:15:49.594Z,17.23
2018-03-27T23:18:17.057Z,17.90
2018-03-27T23:20:44.521Z,17.97
2018-03-27T23:23:11.977Z,17.50
2018-03-27T23:25:39.442Z,15.57
2018-03-27T23:28:07.116Z,16.03
2018-03-27T23:30:34.834Z,15.53
2018-03-27T23:33:02.294Z,15.63
2018-03-27T23:35:29.767Z,18.47
2018-03-27T23:37:57.235Z,15.13
2018-03-27T23:40:24.698Z,15.13
2018-03-27T23:42:52.155Z,17.73
2018-03-27T23:45:19.628Z,16.37
2018-03-27T23:47:47.239Z,14.97
2018-03-27T23:50:14.706Z,13.87
2018-03-27T23:52:42.178Z,15.37
2018-03-27T23:55:10.399Z,16.63
2018-03-27T23:57:38.882Z,16.77
